createdAt,value
2022-08-19T00:01:44.523Z,22.74
2022-08-19T00:04:14.157Z,22.74
2022-08-19T00:06:44.983Z,22.73
2022-08-19T00:09:15.924Z,22.65
2022-08-19T00:11:44.884Z,22.64
2022-08-19T00:14:14.324Z,22.60
2022-08-19T00:16:42.503Z,22.41
2022-08-19T00:19:10.103Z,22.37
2022-08-19T00:21:40.928Z,22.31
2022-08-19T00:24:10.205Z,22.39
2022-08-19T00:26:38.002Z,22.36
2022-08-19T00:29:06.963Z,22.48
2022-08-19T00:31:34.164Z,22.50
2022-08-19T00:34:01.483Z,22.58
2022-08-19T00:36:29.863Z,22.57
2022-08-19T00:38:57.235Z,22.59
2022-08-19T00:41:25.503Z,22.60
2022-08-19T00:44:13.823Z,22.67
2022-08-19T00:46:44.223Z,22.64
2022-08-19T00:49:20.823Z,22.57
2022-08-19T00:51:52.483Z,22.52
2022-08-19T00:54:21.003Z,22.56
2022-08-19T00:56:56.283Z,22.55
2022-08-19T00:59:56.502Z,22.49
2022-08-19T01:02:11.803Z,22.46
2022-08-19T01:04:39.163Z,22.39
2022-08-19T01:07:06.543Z,22.36
2022-08-19T01:09:33.805Z,22.35
2022-08-19T01:12:01.683Z,22.40
2022-08-19T01:14:29.164Z,22.43
2022-08-19T01:16:58.251Z,22.35
2022-08-19T01:19:51.923Z,22.41
2022-08-19T01:22:31.442Z,22.42
2022-08-19T01:25:00.564Z,22.47
2022-08-19T01:27:29.905Z,22.49
2022-08-19T01:30:02.463Z,22.48
2022-08-19T01:32:32.457Z,22.48
2022-08-19T01:35:05.405Z,22.45
2022-08-19T01:37:44.543Z,22.44
2022-08-19T01:40:12.450Z,22.40
2022-08-19T01:42:40.183Z,22.42
2022-08-19T01:45:08.663Z,22.45
2022-08-19T01:47:38.703Z,22.46
2022-08-19T01:50:08.472Z,22.36
2022-08-19T01:52:40.324Z,22.40
2022-08-19T01:55:11.043Z,22.37
2022-08-19T01:57:39.784Z,22.32
2022-08-19T02:00:12.483Z,22.33
2022-08-19T02:02:40.624Z,22.25
2022-08-19T02:05:13.043Z,22.25
2022-08-19T02:07:41.723Z,22.19
2022-08-19T02:10:13.573Z,22.16
2022-08-19T02:12:44.063Z,22.16
2022-08-19T02:15:11.469Z,22.14
2022-08-19T02:17:38.723Z,22.13
2022-08-19T02:20:07.584Z,22.16
2022-08-19T02:22:35.226Z,22.13
2022-08-19T02:25:03.105Z,22.18
2022-08-19T02:27:30.285Z,22.20
2022-08-19T02:29:57.883Z,22.22
2022-08-19T02:32:24.943Z,22.21
2022-08-19T02:34:52.044Z,22.24
2022-08-19T02:37:37.903Z,22.28
2022-08-19T02:40:12.188Z,22.28
2022-08-19T02:42:41.983Z,22.25
2022-08-19T02:45:09.443Z,22.24
2022-08-19T02:47:36.803Z,22.23
2022-08-19T02:50:05.551Z,22.20
2022-08-19T02:52:35.044Z,22.13
2022-08-19T02:55:02.885Z,22.14
2022-08-19T02:57:32.546Z,22.05
2022-08-19T03:00:00.445Z,22.07
2022-08-19T03:02:27.563Z,22.06
2022-08-19T03:04:54.743Z,22.08
2022-08-19T03:07:21.823Z,22.05
2022-08-19T03:09:48.866Z,22.03
2022-08-19T03:12:15.964Z,22.06
2022-08-19T03:14:42.983Z,22.09
2022-08-19T03:17:10.543Z,22.10
2022-08-19T03:19:37.603Z,22.09
2022-08-19T03:22:05.704Z,22.09
2022-08-19T03:24:32.783Z,22.01
2022-08-19T03:27:00.079Z,22.04
2022-08-19T03:29:30.604Z,22.01
2022-08-19T03:32:04.783Z,22.02
2022-08-19T03:34:35.443Z,22.03
2022-08-19T03:37:07.587Z,22.04
2022-08-19T03:39:37.083Z,22.00
2022-08-19T03:42:32.524Z,21.98
2022-08-19T03:44:52.244Z,21.97
2022-08-19T03:47:19.563Z,21.95
2022-08-19T03:49:46.925Z,21.95
2022-08-19T03:52:14.663Z,21.88
2022-08-19T03:54:42.424Z,21.86
2022-08-19T03:57:10.303Z,21.86
2022-08-19T03:59:39.084Z,21.82
2022-08-19T04:02:12.083Z,21.71
2022-08-19T04:04:44.710Z,21.80
2022-08-19T04:07:17.005Z,21.79
2022-08-19T04:09:44.525Z,21.90
2022-08-19T04:12:11.639Z,22.00
2022-08-19T04:14:38.862Z,22.08
2022-08-19T04:17:06.129Z,22.20
2022-08-19T04:19:36.011Z,22.22
2022-08-19T04:22:03.708Z,22.34
2022-08-19T04:24:31.127Z,22.31
2022-08-19T04:27:00.543Z,22.38
2022-08-19T04:29:28.203Z,22.39
2022-08-19T04:32:09.038Z,22.40
2022-08-19T04:35:02.473Z,22.43
2022-08-19T04:37:35.421Z,22.49
2022-08-19T04:40:21.804Z,22.55
2022-08-19T04:42:50.505Z,22.58
2022-08-19T04:45:18.004Z,22.60
2022-08-19T04:47:47.812Z,22.68
2022-08-19T04:50:27.372Z,22.76
2022-08-19T04:52:54.761Z,22.86
2022-08-19T04:55:22.178Z,22.93
2022-08-19T04:57:50.164Z,23.05
2022-08-19T05:00:17.564Z,23.12
2022-08-19T05:02:44.763Z,23.15
2022-08-19T05:05:12.112Z,23.24
2022-08-19T05:07:39.423Z,23.27
2022-08-19T05:10:07.811Z,23.22
2022-08-19T05:12:34.963Z,23.18
2022-08-19T05:15:05.151Z,23.14
2022-08-19T05:17:38.092Z,23.11
2022-08-19T05:20:34.051Z,23.11
2022-08-19T05:23:01.184Z,23.14
2022-08-19T05:25:36.324Z,23.11
2022-08-19T05:28:03.543Z,23.15
2022-08-19T05:30:46.442Z,23.16
2022-08-19T05:33:14.552Z,23.13
2022-08-19T05:35:42.290Z,23.14
2022-08-19T05:38:09.565Z,23.23
2022-08-19T05:40:37.703Z,23.27
2022-08-19T05:43:05.903Z,23.31
2022-08-19T05:45:33.692Z,23.33
2022-08-19T05:48:00.804Z,23.40
2022-08-19T05:50:28.004Z,23.42
2022-08-19T05:52:55.301Z,23.47
2022-08-19T05:55:23.649Z,23.53
2022-08-19T05:57:50.917Z,23.59
2022-08-19T06:00:21.478Z,23.66
2022-08-19T06:02:52.621Z,23.79
2022-08-19T06:05:21.317Z,23.84
2022-08-19T06:07:48.537Z,23.93
2022-08-19T06:10:15.777Z,23.98
2022-08-19T06:12:42.797Z,24.06
2022-08-19T06:15:13.879Z,24.10
2022-08-19T06:17:42.921Z,24.15
2022-08-19T06:20:13.139Z,24.20
2022-08-19T06:22:47.140Z,24.18
2022-08-19T06:25:15.980Z,24.23
2022-08-19T06:28:14.616Z,24.24
2022-08-19T06:30:30.790Z,24.25
2022-08-19T06:32:57.989Z,24.30
2022-08-19T06:35:25.002Z,24.32
2022-08-19T06:37:52.139Z,24.37
2022-08-19T06:40:19.333Z,24.45
2022-08-19T06:42:52.997Z,24.46
2022-08-19T06:45:34.527Z,24.51
2022-08-19T06:48:02.982Z,24.52
2022-08-19T06:50:30.360Z,24.51
2022-08-19T06:52:57.443Z,24.53
2022-08-19T06:55:30.470Z,24.58
2022-08-19T06:58:05.008Z,24.61
2022-08-19T07:00:32.499Z,24.79
2022-08-19T07:03:02.978Z,24.88
2022-08-19T07:05:33.239Z,24.95
2022-08-19T07:08:04.861Z,24.99
2022-08-19T07:10:33.979Z,24.92
2022-08-19T07:13:01.421Z,24.78
2022-08-19T07:15:28.450Z,24.99
2022-08-19T07:17:56.326Z,25.12
2022-08-19T07:20:28.666Z,25.12
2022-08-19T07:22:56.580Z,25.17
2022-08-19T07:25:32.280Z,25.21
2022-08-19T07:28:01.491Z,25.26
2022-08-19T07:30:28.959Z,25.18
2022-08-19T07:32:57.381Z,25.03
2022-08-19T07:35:25.087Z,25.17
2022-08-19T07:37:52.045Z,25.29
2022-08-19T07:40:19.160Z,25.32
2022-08-19T07:42:46.131Z,25.40
2022-08-19T07:45:13.630Z,25.28
2022-08-19T07:47:49.529Z,25.37
2022-08-19T07:50:20.563Z,25.34
2022-08-19T07:52:51.044Z,25.44
2022-08-19T07:55:41.265Z,25.46
2022-08-19T07:58:09.221Z,25.50
2022-08-19T08:00:37.036Z,25.49
2022-08-19T08:03:04.119Z,25.44
2022-08-19T08:05:49.649Z,25.52
2022-08-19T08:08:35.665Z,25.54
2022-08-19T08:11:02.720Z,25.59
2022-08-19T08:13:36.479Z,25.66
2022-08-19T08:16:10.398Z,25.59
2022-08-19T08:18:43.449Z,25.51
2022-08-19T08:21:18.201Z,25.41
2022-08-19T08:23:45.190Z,25.33
2022-08-19T08:26:14.230Z,25.28
2022-08-19T08:28:43.270Z,25.33
2022-08-19T08:31:15.720Z,25.21
2022-08-19T08:33:43.510Z,25.07
2022-08-19T08:36:10.974Z,25.02
2022-08-19T08:38:40.587Z,24.98
2022-08-19T08:41:33.200Z,24.97
2022-08-19T08:44:00.561Z,25.05
2022-08-19T08:46:58.701Z,24.99
2022-08-19T08:49:30.419Z,24.96
2022-08-19T08:52:08.550Z,24.95
2022-08-19T08:54:40.600Z,25.06
2022-08-19T08:57:43.400Z,25.10
2022-08-19T09:00:19.473Z,25.14
2022-08-19T09:02:50.748Z,25.17
2022-08-19T09:05:22.283Z,25.24
2022-08-19T09:08:13.792Z,25.30
2022-08-19T09:10:56.419Z,25.27
2022-08-19T09:13:30.226Z,25.30
2022-08-19T09:16:27.840Z,25.38
2022-08-19T09:19:03.439Z,25.28
2022-08-19T09:21:35.759Z,25.27
2022-08-19T09:24:03.972Z,25.27
2022-08-19T09:26:47.341Z,25.30
2022-08-19T09:29:18.861Z,25.34
2022-08-19T09:31:45.909Z,25.31
2022-08-19T09:34:21.304Z,25.30
2022-08-19T09:36:54.569Z,25.34
2022-08-19T09:39:22.979Z,25.39
2022-08-19T09:41:51.228Z,25.41
2022-08-19T09:44:19.003Z,25.41
2022-08-19T09:46:48.397Z,25.49
2022-08-19T09:49:18.574Z,25.58
2022-08-19T09:51:51.301Z,25.66
2022-08-19T09:54:23.529Z,25.78
2022-08-19T09:56:56.109Z,25.61
2022-08-19T09:59:23.378Z,25.78
2022-08-19T10:01:52.119Z,25.87
2022-08-19T10:04:20.566Z,25.82
2022-08-19T10:06:53.825Z,25.92
2022-08-19T10:09:26.454Z,25.88
2022-08-19T10:12:02.444Z,26.05
2022-08-19T10:14:29.979Z,26.18
2022-08-19T10:16:59.308Z,26.26
2022-08-19T10:19:26.895Z,26.12
2022-08-19T10:21:55.644Z,26.21
2022-08-19T10:24:29.173Z,26.42
2022-08-19T10:26:59.653Z,26.41
2022-08-19T10:29:32.057Z,26.49
2022-08-19T10:32:03.325Z,26.32
2022-08-19T10:34:31.575Z,26.42
2022-08-19T10:37:00.910Z,26.45
2022-08-19T10:39:31.408Z,26.41
2022-08-19T10:42:00.269Z,26.57
2022-08-19T10:44:32.281Z,26.59
2022-08-19T10:47:00.721Z,26.65
2022-08-19T10:49:28.266Z,26.68
2022-08-19T10:52:20.196Z,26.74
2022-08-19T10:55:08.385Z,26.70
2022-08-19T10:57:59.454Z,26.65
2022-08-19T11:00:24.647Z,26.66
2022-08-19T11:13:18.296Z,26.02
2022-08-19T11:15:47.068Z,26.04
2022-08-19T11:18:14.509Z,26.11
2022-08-19T11:20:41.477Z,26.22
2022-08-19T11:23:08.830Z,26.35
2022-08-19T11:25:36.418Z,26.51
2022-08-19T11:28:03.650Z,26.59
2022-08-19T11:30:30.629Z,26.65
2022-08-19T11:32:57.669Z,26.77
2022-08-19T11:35:24.648Z,26.79
2022-08-19T11:37:51.639Z,26.92
2022-08-19T11:40:19.125Z,27.03
2022-08-19T11:42:58.250Z,27.06
2022-08-19T11:45:27.910Z,27.13
2022-08-19T11:47:55.041Z,27.20
2022-08-19T11:50:22.289Z,27.23
2022-08-19T11:52:50.868Z,27.29
2022-08-19T11:55:17.989Z,27.42
2022-08-19T11:57:45.018Z,27.46
2022-08-19T12:00:14.269Z,27.47
2022-08-19T12:02:41.639Z,27.45
2022-08-19T12:05:12.681Z,27.50
2022-08-19T12:07:42.018Z,27.53
2022-08-19T12:10:09.452Z,27.67
2022-08-19T12:12:41.609Z,27.73
2022-08-19T12:15:09.967Z,27.75
2022-08-19T12:17:37.039Z,27.74
2022-08-19T12:20:06.143Z,27.69
2022-08-19T12:22:33.170Z,27.65
2022-08-19T12:25:00.220Z,27.70
2022-08-19T12:27:32.279Z,27.72
2022-08-19T12:30:10.408Z,27.73
2022-08-19T12:32:37.878Z,27.81
2022-08-19T12:35:06.108Z,27.89
2022-08-19T12:37:33.778Z,28.13
2022-08-19T12:40:00.934Z,28.36
2022-08-19T12:42:28.040Z,28.75
2022-08-19T12:44:55.249Z,29.11
2022-08-19T12:47:23.429Z,29.49
2022-08-19T12:49:53.897Z,29.81
2022-08-19T12:52:24.077Z,30.16
2022-08-19T12:54:54.300Z,30.70
2022-08-19T12:57:31.840Z,31.14
2022-08-19T13:00:02.001Z,31.39
2022-08-19T13:02:38.552Z,31.60
2022-08-19T13:05:09.620Z,31.84
2022-08-19T13:07:38.423Z,32.02
2022-08-19T13:10:12.269Z,32.14
2022-08-19T13:12:42.120Z,32.11
2022-08-19T13:15:11.229Z,32.20
2022-08-19T13:17:39.311Z,32.35
2022-08-19T13:20:09.259Z,32.56
2022-08-19T13:22:37.240Z,32.76
2022-08-19T13:25:06.539Z,33.02
2022-08-19T13:27:33.960Z,33.16
2022-08-19T13:30:19.881Z,33.41
2022-08-19T13:33:05.470Z,33.65
2022-08-19T13:35:32.573Z,33.77
2022-08-19T13:37:59.593Z,33.85
2022-08-19T13:40:28.160Z,33.79
2022-08-19T13:42:56.362Z,33.75
2022-08-19T13:45:25.879Z,33.57
2022-08-19T13:47:59.208Z,33.45
2022-08-19T13:50:34.709Z,33.57
2022-08-19T13:53:03.510Z,33.65
2022-08-19T13:55:31.229Z,33.65
2022-08-19T13:58:00.408Z,33.65
2022-08-19T14:00:30.176Z,33.58
2022-08-19T14:02:58.639Z,33.37
2022-08-19T14:05:27.469Z,33.07
2022-08-19T14:07:54.611Z,32.85
2022-08-19T14:10:22.361Z,32.54
2022-08-19T14:12:49.540Z,32.24
2022-08-19T14:15:17.058Z,32.06
2022-08-19T14:17:45.870Z,32.07
2022-08-19T14:20:18.376Z,32.17
2022-08-19T14:22:49.017Z,32.21
2022-08-19T14:25:20.220Z,32.41
2022-08-19T14:27:48.012Z,32.59
2022-08-19T14:30:19.234Z,32.79
2022-08-19T14:32:46.339Z,33.01
2022-08-19T14:35:16.041Z,33.05
2022-08-19T14:37:46.252Z,33.10
2022-08-19T14:40:16.838Z,33.12
2022-08-19T14:42:44.803Z,33.11
2022-08-19T14:45:13.177Z,33.18
2022-08-19T14:47:40.940Z,33.14
2022-08-19T14:50:17.745Z,33.16
2022-08-19T14:52:49.047Z,33.16
2022-08-19T14:55:18.429Z,33.18
2022-08-19T14:57:46.287Z,33.20
2022-08-19T15:00:14.480Z,33.29
2022-08-19T15:02:43.017Z,33.40
2022-08-19T15:05:10.219Z,33.51
2022-08-19T15:07:38.048Z,33.62
2022-08-19T15:10:08.061Z,33.60
2022-08-19T15:12:36.379Z,33.52
2022-08-19T15:15:04.180Z,33.46
2022-08-19T15:17:45.018Z,33.30
2022-08-19T15:20:20.280Z,33.03
2022-08-19T15:22:47.360Z,32.70
2022-08-19T15:25:18.040Z,32.64
2022-08-19T15:27:46.185Z,32.57
2022-08-19T15:30:19.040Z,32.44
2022-08-19T15:32:48.949Z,32.33
2022-08-19T15:35:16.744Z,32.20
2022-08-19T15:37:44.763Z,31.86
2022-08-19T15:40:12.569Z,31.67
2022-08-19T15:42:42.669Z,31.66
2022-08-19T15:45:11.687Z,31.62
2022-08-19T15:47:39.780Z,31.74
2022-08-19T15:50:17.531Z,31.78
2022-08-19T15:52:56.969Z,31.68
2022-08-19T15:55:33.963Z,31.49
2022-08-19T15:58:28.880Z,31.49
2022-08-19T16:01:27.369Z,31.21
2022-08-19T16:04:16.027Z,31.27
2022-08-19T16:06:53.869Z,31.07
2022-08-19T16:09:26.983Z,30.91
2022-08-19T16:12:01.254Z,30.69
2022-08-19T16:14:30.531Z,30.54
2022-08-19T16:16:57.749Z,30.36
2022-08-19T16:19:25.489Z,30.16
2022-08-19T16:21:53.461Z,30.05
2022-08-19T16:24:24.903Z,29.92
2022-08-19T16:26:53.140Z,29.84
2022-08-19T16:29:33.923Z,29.72
2022-08-19T16:32:10.456Z,29.60
2022-08-19T16:34:40.316Z,29.50
2022-08-19T16:37:08.211Z,29.39
2022-08-19T16:39:35.089Z,29.28
2022-08-19T16:42:03.339Z,29.20
2022-08-19T16:44:31.771Z,29.17
2022-08-19T16:47:00.055Z,29.13
2022-08-19T16:49:53.268Z,28.91
2022-08-19T16:52:20.011Z,28.94
2022-08-19T16:54:48.219Z,28.82
2022-08-19T16:57:15.320Z,28.77
2022-08-19T16:59:48.104Z,28.75
2022-08-19T17:02:22.673Z,28.65
2022-08-19T17:04:58.317Z,28.57
2022-08-19T17:07:33.027Z,28.46
2022-08-19T17:10:02.290Z,28.42
2022-08-19T17:12:30.628Z,28.36
2022-08-19T17:15:03.769Z,28.35
2022-08-19T17:17:31.944Z,28.31
2022-08-19T17:20:00.569Z,28.32
2022-08-19T17:22:28.096Z,28.27
2022-08-19T17:24:56.436Z,28.21
2022-08-19T17:27:25.969Z,28.06
2022-08-19T17:29:53.284Z,28.01
2022-08-19T17:32:25.131Z,27.99
2022-08-19T17:34:54.408Z,27.96
2022-08-19T17:37:22.179Z,27.89
2022-08-19T17:39:49.583Z,27.83
2022-08-19T17:42:16.990Z,27.83
2022-08-19T17:44:46.869Z,27.79
2022-08-19T17:47:18.590Z,27.75
2022-08-19T17:49:45.619Z,27.71
2022-08-19T17:52:12.569Z,27.68
2022-08-19T17:54:39.552Z,27.64
2022-08-19T17:57:06.537Z,27.55
2022-08-19T17:59:33.589Z,27.50
2022-08-19T18:02:01.270Z,27.45
2022-08-19T18:04:30.001Z,27.41
2022-08-19T18:06:57.650Z,27.37
2022-08-19T18:09:26.673Z,27.31
2022-08-19T18:11:57.359Z,27.24
2022-08-19T18:14:33.368Z,27.17
2022-08-19T18:17:06.409Z,27.18
2022-08-19T18:19:41.077Z,27.04
2022-08-19T18:22:30.849Z,26.95
2022-08-19T18:24:58.719Z,26.84
2022-08-19T18:27:27.950Z,26.80
2022-08-19T18:29:59.667Z,26.74
2022-08-19T18:32:32.550Z,26.67
2022-08-19T18:35:02.242Z,26.68
2022-08-19T18:37:29.207Z,26.64
2022-08-19T18:40:14.731Z,26.62
2022-08-19T18:43:02.139Z,26.59
2022-08-19T18:45:47.929Z,26.59
2022-08-19T18:48:33.779Z,26.57
2022-08-19T18:51:01.969Z,26.52
2022-08-19T18:53:32.511Z,26.42
2022-08-19T18:56:00.100Z,26.31
2022-08-19T18:58:34.265Z,26.12
2022-08-19T19:01:11.647Z,26.09
2022-08-19T19:03:47.569Z,26.06
2022-08-19T19:06:19.129Z,26.04
2022-08-19T19:08:48.470Z,26.00
2022-08-19T19:11:39.769Z,25.94
2022-08-19T19:14:23.327Z,25.85
2022-08-19T19:17:02.179Z,25.72
2022-08-19T19:19:30.230Z,25.78
2022-08-19T19:21:58.809Z,25.67
2022-08-19T19:24:30.422Z,25.54
2022-08-19T19:27:00.480Z,25.51
2022-08-19T19:29:28.040Z,25.48
2022-08-19T19:31:56.231Z,25.41
2022-08-19T19:34:29.057Z,25.36
2022-08-19T19:36:57.359Z,25.33
2022-08-19T19:39:44.801Z,25.30
2022-08-19T19:42:19.888Z,25.27
2022-08-19T19:44:50.691Z,25.24
2022-08-19T19:47:19.522Z,25.20
2022-08-19T19:50:13.916Z,25.17
2022-08-19T19:52:39.869Z,25.08
2022-08-19T19:55:09.420Z,25.05
2022-08-19T19:57:37.570Z,25.03
2022-08-19T20:00:04.879Z,24.99
2022-08-19T20:02:31.780Z,24.97
2022-08-19T20:04:59.139Z,24.94
2022-08-19T20:07:46.570Z,24.87
2022-08-19T20:10:14.219Z,24.83
2022-08-19T20:12:41.269Z,24.72
2022-08-19T20:15:08.704Z,24.64
2022-08-19T20:17:42.730Z,24.63
2022-08-19T20:20:19.525Z,24.65
2022-08-19T20:22:47.829Z,24.49
2022-08-19T20:25:16.749Z,24.37
2022-08-19T20:27:44.159Z,24.30
2022-08-19T20:30:19.479Z,24.27
2022-08-19T20:32:48.161Z,24.24
2022-08-19T20:35:18.939Z,24.32
2022-08-19T20:37:46.310Z,24.31
2022-08-19T20:40:14.091Z,24.33
2022-08-19T20:42:42.991Z,24.31
2022-08-19T20:45:21.605Z,24.31
2022-08-19T20:47:59.599Z,24.30
2022-08-19T20:50:26.993Z,24.22
2022-08-19T20:52:57.349Z,24.29
2022-08-19T20:55:26.069Z,24.14
2022-08-19T20:57:53.493Z,24.08
2022-08-19T21:00:21.042Z,24.11
2022-08-19T21:02:48.119Z,24.11
2022-08-19T21:05:15.199Z,24.18
2022-08-19T21:07:42.940Z,24.14
2022-08-19T21:10:09.915Z,24.05
2022-08-19T21:12:36.940Z,23.99
2022-08-19T21:15:05.290Z,23.93
2022-08-19T21:17:32.290Z,23.94
2022-08-19T21:19:59.400Z,23.94
2022-08-19T21:22:26.431Z,23.91
2022-08-19T21:24:53.866Z,23.82
2022-08-19T21:27:20.807Z,23.79
2022-08-19T21:29:48.420Z,23.75
2022-08-19T21:32:15.420Z,23.77
2022-08-19T21:34:44.034Z,23.74
2022-08-19T21:37:14.793Z,23.64
2022-08-19T21:39:51.959Z,23.57
2022-08-19T21:42:19.019Z,23.57
2022-08-19T21:44:46.159Z,23.51
2022-08-19T21:47:13.382Z,23.54
2022-08-19T21:49:40.389Z,23.52
2022-08-19T21:52:08.399Z,23.48
2022-08-19T21:54:37.887Z,23.49
2022-08-19T21:57:10.595Z,23.43
2022-08-19T21:59:43.727Z,23.38
2022-08-19T22:02:22.337Z,23.34
2022-08-19T22:04:51.780Z,23.32
2022-08-19T22:07:20.553Z,23.29
2022-08-19T22:09:49.562Z,23.31
2022-08-19T22:12:37.970Z,23.29
2022-08-19T22:15:09.190Z,23.27
2022-08-19T22:17:36.700Z,23.27
2022-08-19T22:20:05.479Z,23.26
2022-08-19T22:22:33.559Z,23.20
2022-08-19T22:25:24.363Z,23.18
2022-08-19T22:28:01.841Z,23.18
2022-08-19T22:30:33.101Z,23.16
2022-08-19T22:33:09.194Z,23.14
2022-08-19T22:35:38.403Z,23.02
2022-08-19T22:38:07.439Z,22.96
2022-08-19T22:40:39.758Z,22.99
2022-08-19T22:43:08.280Z,23.06
2022-08-19T22:45:36.549Z,23.05
2022-08-19T22:48:08.019Z,23.07
2022-08-19T22:50:36.241Z,23.03
2022-08-19T22:53:06.450Z,23.00
2022-08-19T22:55:34.469Z,22.95
2022-08-19T22:58:01.731Z,22.95
2022-08-19T23:00:29.144Z,22.93
2022-08-19T23:02:57.900Z,22.95
2022-08-19T23:05:27.909Z,22.93
2022-08-19T23:07:57.676Z,22.93
2022-08-19T23:10:26.723Z,22.93
2022-08-19T23:12:56.945Z,22.93
2022-08-19T23:15:27.635Z,22.95
2022-08-19T23:17:57.114Z,22.95
2022-08-19T23:20:27.478Z,22.99
2022-08-19T23:22:55.359Z,22.87
2022-08-19T23:25:26.867Z,22.82
2022-08-19T23:28:13.482Z,22.77
2022-08-19T23:30:47.287Z,22.76
2022-08-19T23:33:41.065Z,22.79
2022-08-19T23:36:16.578Z,22.77
2022-08-19T23:38:46.008Z,22.78
2022-08-19T23:41:14.947Z,22.77
2022-08-19T23:43:43.078Z,22.76
2022-08-19T23:46:13.337Z,22.77
2022-08-19T23:48:40.781Z,22.74
2022-08-19T23:51:11.095Z,22.70
2022-08-19T23:53:40.473Z,22.71
2022-08-19T23:56:09.335Z,22.73
2022-08-19T23:58:37.447Z,22.76
